sensor_id;sensor_type;location;lat;lon;timestamp;pressure;altitude;pressure_sealevel;temperature;humidity
69153;BME280;56261;51.580;4.578;2023-12-20T00:02:12;101834.25;;;5.87;100.00
69153;BME280;56261;51.580;4.578;2023-12-20T00:04:38;101841.97;;;5.90;100.00
69153;BME280;56261;51.580;4.578;2023-12-20T00:07:03;101836.03;;;5.99;100.00
69153;BME280;56261;51.580;4.578;2023-12-20T00:09:28;101848.81;;;6.06;100.00
69153;BME280;56261;51.580;4.578;2023-12-20T00:11:54;101845.72;;;6.12;100.00
69153;BME280;56261;51.580;4.578;2023-12-20T00:14:19;101840.66;;;6.20;100.00
69153;BME280;56261;51.580;4.578;2023-12-20T00:16:45;101835.44;;;6.07;100.00
69153;BME280;56261;51.580;4.578;2023-12-20T00:19:10;101839.69;;;6.10;100.00
69153;BME280;56261;51.580;4.578;2023-12-20T00:21:36;101834.75;;;6.05;100.00
69153;BME280;56261;51.580;4.578;2023-12-20T00:24:01;101841.59;;;6.08;100.00
69153;BME280;56261;51.580;4.578;2023-12-20T00:26:27;101846.91;;;6.08;100.00
69153;BME280;56261;51.580;4.578;2023-12-20T00:28:53;101847.47;;;6.00;100.00
69153;BME280;56261;51.580;4.578;2023-12-20T00:31:18;101851.69;;;6.02;100.00
69153;BME280;56261;51.580;4.578;2023-12-20T00:33:44;101848.09;;;6.03;100.00
69153;BME280;56261;51.580;4.578;2023-12-20T00:36:11;101833.63;;;5.96;100.00
69153;BME280;56261;51.580;4.578;2023-12-20T00:38:36;101839.09;;;5.93;100.00
69153;BME280;56261;51.580;4.578;2023-12-20T00:41:02;101831.50;;;5.89;100.00
69153;BME280;56261;51.580;4.578;2023-12-20T00:43:27;101836.59;;;5.92;100.00
69153;BME280;56261;51.580;4.578;2023-12-20T00:45:53;101834.97;;;5.89;100.00
69153;BME280;56261;51.580;4.578;2023-12-20T00:48:18;101846.84;;;5.96;100.00
69153;BME280;56261;51.580;4.578;2023-12-20T00:50:43;101840.41;;;5.88;100.00
69153;BME280;56261;51.580;4.578;2023-12-20T00:53:09;101835.97;;;5.88;100.00
69153;BME280;56261;51.580;4.578;2023-12-20T00:55:34;101833.94;;;5.92;100.00
69153;BME280;56261;51.580;4.578;2023-12-20T00:58:00;101836.59;;;5.92;100.00
69153;BME280;56261;51.580;4.578;2023-12-20T01:00:25;101837.63;;;5.89;100.00
69153;BME280;56261;51.580;4.578;2023-12-20T01:02:50;101834.25;;;5.87;100.00
69153;BME280;56261;51.580;4.578;2023-12-20T01:05:17;101827.97;;;5.77;100.00
69153;BME280;56261;51.580;4.578;2023-12-20T01:07:43;101844.13;;;5.85;100.00
69153;BME280;56261;51.580;4.578;2023-12-20T01:10:08;101839.78;;;5.84;100.00
69153;BME280;56261;51.580;4.578;2023-12-20T01:12:35;101841.66;;;5.95;100.00
69153;BME280;56261;51.580;4.578;2023-12-20T01:15:01;101838.25;;;5.93;100.00
69153;BME280;56261;51.580;4.578;2023-12-20T01:17:26;101842.72;;;5.92;100.00
69153;BME280;56261;51.580;4.578;2023-12-20T01:19:51;101835.59;;;5.93;100.00
69153;BME280;56261;51.580;4.578;2023-12-20T01:22:17;101819.22;;;5.88;100.00
69153;BME280;56261;51.580;4.578;2023-12-20T01:24:42;101834.09;;;6.01;100.00
69153;BME280;56261;51.580;4.578;2023-12-20T01:27:07;101837.97;;;6.09;100.00
69153;BME280;56261;51.580;4.578;2023-12-20T01:29:33;101840.03;;;6.05;100.00
69153;BME280;56261;51.580;4.578;2023-12-20T01:31:58;101830.28;;;6.06;100.00
69153;BME280;56261;51.580;4.578;2023-12-20T01:34:24;101839.06;;;6.06;100.00
69153;BME280;56261;51.580;4.578;2023-12-20T01:36:49;101829.31;;;6.07;100.00
69153;BME280;56261;51.580;4.578;2023-12-20T01:39:14;101836.50;;;6.05;100.00
69153;BME280;56261;51.580;4.578;2023-12-20T01:41:40;101843.88;;;6.01;100.00
69153;BME280;56261;51.580;4.578;2023-12-20T01:44:05;101833.66;;;6.08;100.00
69153;BME280;56261;51.580;4.578;2023-12-20T01:46:30;101836.78;;;6.13;100.00
69153;BME280;56261;51.580;4.578;2023-12-20T01:48:56;101832.22;;;6.15;100.00
69153;BME280;56261;51.580;4.578;2023-12-20T01:51:22;101827.41;;;6.20;100.00
69153;BME280;56261;51.580;4.578;2023-12-20T01:53:48;101830.53;;;6.25;100.00
69153;BME280;56261;51.580;4.578;2023-12-20T01:56:15;101825.75;;;6.19;100.00
69153;BME280;56261;51.580;4.578;2023-12-20T01:58:45;101828.41;;;6.30;100.00
69153;BME280;56261;51.580;4.578;2023-12-20T02:01:11;101845.53;;;6.37;100.00
69153;BME280;56261;51.580;4.578;2023-12-20T02:03:40;101831.78;;;6.32;100.00
69153;BME280;56261;51.580;4.578;2023-12-20T02:06:06;101831.19;;;6.40;100.00
69153;BME280;56261;51.580;4.578;2023-12-20T02:08:32;101833.72;;;6.41;100.00
69153;BME280;56261;51.580;4.578;2023-12-20T02:10:57;101823.34;;;6.50;100.00
69153;BME280;56261;51.580;4.578;2023-12-20T02:13:23;101830.84;;;6.56;100.00
69153;BME280;56261;51.580;4.578;2023-12-20T02:15:48;101827.34;;;6.55;100.00
69153;BME280;56261;51.580;4.578;2023-12-20T02:18:14;101835.56;;;6.63;100.00
69153;BME280;56261;51.580;4.578;2023-12-20T02:20:42;101832.41;;;6.58;100.00
69153;BME280;56261;51.580;4.578;2023-12-20T02:23:07;101831.56;;;6.58;100.00
69153;BME280;56261;51.580;4.578;2023-12-20T02:25:32;101842.91;;;6.60;100.00
69153;BME280;56261;51.580;4.578;2023-12-20T02:27:58;101834.13;;;6.59;100.00
69153;BME280;56261;51.580;4.578;2023-12-20T02:30:23;101836.41;;;6.64;100.00
69153;BME280;56261;51.580;4.578;2023-12-20T02:32:49;101830.72;;;6.57;100.00
69153;BME280;56261;51.580;4.578;2023-12-20T02:35:15;101832.41;;;6.58;100.00
69153;BME280;56261;51.580;4.578;2023-12-20T02:37:40;101826.16;;;6.59;100.00
69153;BME280;56261;51.580;4.578;2023-12-20T02:40:06;101827.72;;;6.62;100.00
69153;BME280;56261;51.580;4.578;2023-12-20T02:42:32;101834.13;;;6.71;100.00
69153;BME280;56261;51.580;4.578;2023-12-20T02:44:57;101829.44;;;6.74;100.00
69153;BME280;56261;51.580;4.578;2023-12-20T02:47:22;101831.47;;;6.71;100.00
69153;BME280;56261;51.580;4.578;2023-12-20T02:49:48;101832.41;;;6.81;100.00
69153;BME280;56261;51.580;4.578;2023-12-20T02:52:14;101833.75;;;6.86;100.00
69153;BME280;56261;51.580;4.578;2023-12-20T02:54:39;101827.47;;;6.88;100.00
69153;BME280;56261;51.580;4.578;2023-12-20T02:57:05;101824.81;;;6.88;100.00
69153;BME280;56261;51.580;4.578;2023-12-20T02:59:31;101801.69;;;6.78;100.00
69153;BME280;56261;51.580;4.578;2023-12-20T03:01:56;101817.84;;;6.86;100.00
69153;BME280;56261;51.580;4.578;2023-12-20T03:04:21;101812.66;;;6.85;100.00
69153;BME280;56261;51.580;4.578;2023-12-20T03:06:47;101813.84;;;6.81;100.00
69153;BME280;56261;51.580;4.578;2023-12-20T03:09:12;101822.69;;;6.81;100.00
69153;BME280;56261;51.580;4.578;2023-12-20T03:11:38;101809.41;;;6.81;100.00
69153;BME280;56261;51.580;4.578;2023-12-20T03:14:04;101812.66;;;6.85;100.00
69153;BME280;56261;51.580;4.578;2023-12-20T03:16:29;101819.66;;;6.86;100.00
69153;BME280;56261;51.580;4.578;2023-12-20T03:18:56;101819.41;;;6.78;100.00
69153;BME280;56261;51.580;4.578;2023-12-20T03:21:21;101811.81;;;6.73;100.00
69153;BME280;56261;51.580;4.578;2023-12-20T03:23:47;101810.63;;;6.66;100.00
69153;BME280;56261;51.580;4.578;2023-12-20T03:26:13;101805.91;;;6.58;100.00
69153;BME280;56261;51.580;4.578;2023-12-20T03:28:41;101800.38;;;6.50;100.00
69153;BME280;56261;51.580;4.578;2023-12-20T03:31:06;101798.56;;;6.39;100.00
69153;BME280;56261;51.580;4.578;2023-12-20T03:33:32;101806.16;;;6.44;100.00
69153;BME280;56261;51.580;4.578;2023-12-20T03:35:57;101795.44;;;6.46;100.00
69153;BME280;56261;51.580;4.578;2023-12-20T03:38:22;101805.41;;;6.31;100.00
69153;BME280;56261;51.580;4.578;2023-12-20T03:40:50;101805.78;;;6.37;100.00
69153;BME280;56261;51.580;4.578;2023-12-20T03:43:16;101806.88;;;6.35;100.00
69153;BME280;56261;51.580;4.578;2023-12-20T03:45:42;101813.97;;;6.34;100.00
69153;BME280;56261;51.580;4.578;2023-12-20T03:48:07;101827.56;;;6.30;100.00
69153;BME280;56261;51.580;4.578;2023-12-20T03:50:33;101810.97;;;6.39;100.00
69153;BME280;56261;51.580;4.578;2023-12-20T03:52:59;101815.06;;;6.43;100.00
69153;BME280;56261;51.580;4.578;2023-12-20T03:55:24;101810.72;;;6.42;100.00
69153;BME280;56261;51.580;4.578;2023-12-20T03:57:49;101821.06;;;6.45;100.00
69153;BME280;56261;51.580;4.578;2023-12-20T04:00:15;101817.47;;;6.46;100.00
69153;BME280;56261;51.580;4.578;2023-12-20T04:02:41;101817.59;;;6.56;100.00
69153;BME280;56261;51.580;4.578;2023-12-20T04:05:08;101819.28;;;6.46;100.00
69153;BME280;56261;51.580;4.578;2023-12-20T04:07:34;101824.34;;;6.49;100.00
69153;BME280;56261;51.580;4.578;2023-12-20T04:10:00;101802.41;;;6.35;100.00
69153;BME280;56261;51.580;4.578;2023-12-20T04:12:28;101805.78;;;6.37;100.00
69153;BME280;56261;51.580;4.578;2023-12-20T04:14:53;101805.53;;;6.40;100.00
69153;BME280;56261;51.580;4.578;2023-12-20T04:17:19;101806.75;;;6.36;100.00
69153;BME280;56261;51.580;4.578;2023-12-20T04:19:45;101814.19;;;6.31;100.00
69153;BME280;56261;51.580;4.578;2023-12-20T04:22:10;101806.84;;;6.23;100.00
69153;BME280;56261;51.580;4.578;2023-12-20T04:24:36;101808.50;;;6.24;100.00
69153;BME280;56261;51.580;4.578;2023-12-20T04:27:02;101818.28;;;6.24;100.00
69153;BME280;56261;51.580;4.578;2023-12-20T04:29:27;101823.84;;;6.32;100.00
69153;BME280;56261;51.580;4.578;2023-12-20T04:31:53;101813.97;;;6.23;100.00
69153;BME280;56261;51.580;4.578;2023-12-20T04:34:18;101814.06;;;6.21;100.00
69153;BME280;56261;51.580;4.578;2023-12-20T04:36:44;101809.13;;;6.28;100.00
69153;BME280;56261;51.580;4.578;2023-12-20T04:39:10;101819.50;;;6.31;100.00
69153;BME280;56261;51.580;4.578;2023-12-20T04:41:35;101807.31;;;6.17;100.00
69153;BME280;56261;51.580;4.578;2023-12-20T04:44:00;101801.28;;;6.15;100.00
69153;BME280;56261;51.580;4.578;2023-12-20T04:46:26;101806.31;;;6.18;100.00
69153;BME280;56261;51.580;4.578;2023-12-20T04:48:51;101811.03;;;6.15;100.00
69153;BME280;56261;51.580;4.578;2023-12-20T04:51:17;101796.72;;;6.17;100.00
69153;BME280;56261;51.580;4.578;2023-12-20T04:53:42;101795.03;;;6.16;100.00
69153;BME280;56261;51.580;4.578;2023-12-20T04:56:07;101788.78;;;6.29;100.00
69153;BME280;56261;51.580;4.578;2023-12-20T04:58:34;101780.94;;;6.27;100.00
69153;BME280;56261;51.580;4.578;2023-12-20T05:00:59;101782.28;;;6.21;100.00
69153;BME280;56261;51.580;4.578;2023-12-20T05:03:25;101778.91;;;6.31;100.00
69153;BME280;56261;51.580;4.578;2023-12-20T05:05:50;101771.19;;;6.16;100.00
69153;BME280;56261;51.580;4.578;2023-12-20T05:08:16;101774.78;;;6.15;100.00
69153;BME280;56261;51.580;4.578;2023-12-20T05:10:41;101772.16;;;6.15;100.00
69153;BME280;56261;51.580;4.578;2023-12-20T05:13:07;101769.97;;;6.20;100.00
69153;BME280;56261;51.580;4.578;2023-12-20T05:15:33;101770.69;;;6.22;100.00
69153;BME280;56261;51.580;4.578;2023-12-20T05:17:58;101777.91;;;6.20;100.00
69153;BME280;56261;51.580;4.578;2023-12-20T05:20:23;101790.81;;;6.25;100.00
69153;BME280;56261;51.580;4.578;2023-12-20T05:22:49;101786.75;;;6.21;100.00
69153;BME280;56261;51.580;4.578;2023-12-20T05:25:14;101772.38;;;6.12;100.00
69153;BME280;56261;51.580;4.578;2023-12-20T05:27:39;101771.31;;;6.15;100.00
69153;BME280;56261;51.580;4.578;2023-12-20T05:30:05;101783.81;;;6.13;100.00
69153;BME280;56261;51.580;4.578;2023-12-20T05:32:31;101775.97;;;6.11;100.00
69153;BME280;56261;51.580;4.578;2023-12-20T05:34:56;101771.41;;;6.13;100.00
69153;BME280;56261;51.580;4.578;2023-12-20T05:37:22;101779.97;;;6.17;100.00
69153;BME280;56261;51.580;4.578;2023-12-20T05:39:47;101787.19;;;6.15;100.00
69153;BME280;56261;51.580;4.578;2023-12-20T05:42:12;101782.00;;;6.13;100.00
69153;BME280;56261;51.580;4.578;2023-12-20T05:44:38;101784.28;;;6.07;100.00
69153;BME280;56261;51.580;4.578;2023-12-20T05:47:03;101784.31;;;6.18;100.00
69153;BME280;56261;51.580;4.578;2023-12-20T05:49:29;101787.09;;;6.16;100.00
69153;BME280;56261;51.580;4.578;2023-12-20T05:51:54;101776.59;;;6.15;100.00
69153;BME280;56261;51.580;4.578;2023-12-20T05:54:19;101782.97;;;6.12;100.00
69153;BME280;56261;51.580;4.578;2023-12-20T05:56:45;101777.44;;;6.15;100.00
69153;BME280;56261;51.580;4.578;2023-12-20T05:59:11;101791.53;;;6.16;100.00
69153;BME280;56261;51.580;4.578;2023-12-20T06:01:36;101790.94;;;6.12;100.00
69153;BME280;56261;51.580;4.578;2023-12-20T06:04:02;101783.72;;;6.14;100.00
69153;BME280;56261;51.580;4.578;2023-12-20T06:06:28;101795.06;;;6.28;100.00
69153;BME280;56261;51.580;4.578;2023-12-20T06:08:53;101792.13;;;6.19;100.00
69153;BME280;56261;51.580;4.578;2023-12-20T06:11:19;101785.88;;;6.20;100.00
69153;BME280;56261;51.580;4.578;2023-12-20T06:13:44;101784.66;;;6.13;100.00
69153;BME280;56261;51.580;4.578;2023-12-20T06:16:10;101790.94;;;6.23;100.00
69153;BME280;56261;51.580;4.578;2023-12-20T06:18:35;101789.59;;;6.18;100.00
69153;BME280;56261;51.580;4.578;2023-12-20T06:21:02;101781.63;;;6.07;100.00
69153;BME280;56261;51.580;4.578;2023-12-20T06:23:27;101784.66;;;6.13;100.00
69153;BME280;56261;51.580;4.578;2023-12-20T06:25:53;101791.19;;;6.32;100.00
69153;BME280;56261;51.580;4.578;2023-12-20T06:28:18;101788.69;;;6.30;100.00
69153;BME280;56261;51.580;4.578;2023-12-20T06:30:44;101798.53;;;6.28;100.00
69153;BME280;56261;51.580;4.578;2023-12-20T06:33:09;101798.28;;;6.20;100.00
69153;BME280;56261;51.580;4.578;2023-12-20T06:35:36;101786.13;;;6.17;100.00
69153;BME280;56261;51.580;4.578;2023-12-20T06:38:02;101785.75;;;6.11;100.00
69153;BME280;56261;51.580;4.578;2023-12-20T06:40:27;101778.41;;;6.14;100.00
69153;BME280;56261;51.580;4.578;2023-12-20T06:42:53;101788.66;;;6.19;100.00
69153;BME280;56261;51.580;4.578;2023-12-20T06:45:18;101785.13;;;6.18;100.00
69153;BME280;56261;51.580;4.578;2023-12-20T06:47:43;101774.06;;;6.13;100.00
69153;BME280;56261;51.580;4.578;2023-12-20T06:50:09;101774.53;;;6.18;100.00
69153;BME280;56261;51.580;4.578;2023-12-20T06:52:34;101780.09;;;6.15;100.00
69153;BME280;56261;51.580;4.578;2023-12-20T06:55:00;101784.09;;;6.21;100.00
69153;BME280;56261;51.580;4.578;2023-12-20T06:57:26;101777.81;;;6.22;100.00
69153;BME280;56261;51.580;4.578;2023-12-20T06:59:51;101783.72;;;6.26;100.00
69153;BME280;56261;51.580;4.578;2023-12-20T07:02:17;101779.16;;;6.28;100.00
69153;BME280;56261;51.580;4.578;2023-12-20T07:04:42;101791.06;;;6.22;100.00
69153;BME280;56261;51.580;4.578;2023-12-20T07:07:08;101781.44;;;6.32;100.00
69153;BME280;56261;51.580;4.578;2023-12-20T07:09:33;101778.44;;;6.26;100.00
69153;BME280;56261;51.580;4.578;2023-12-20T07:11:59;101766.63;;;6.30;100.00
69153;BME280;56261;51.580;4.578;2023-12-20T07:14:24;101766.63;;;6.30;100.00
69153;BME280;56261;51.580;4.578;2023-12-20T07:16:50;101769.13;;;6.20;100.00
69153;BME280;56261;51.580;4.578;2023-12-20T07:19:15;101778.78;;;6.21;100.00
69153;BME280;56261;51.580;4.578;2023-12-20T07:21:41;101766.50;;;6.20;100.00
69153;BME280;56261;51.580;4.578;2023-12-20T07:24:07;101769.97;;;6.20;100.00
69153;BME280;56261;51.580;4.578;2023-12-20T07:26:32;101782.28;;;6.21;100.00
69153;BME280;56261;51.580;4.578;2023-12-20T07:28:57;101781.91;;;6.15;100.00
69153;BME280;56261;51.580;4.578;2023-12-20T07:31:24;101785.13;;;6.18;100.00
69153;BME280;56261;51.580;4.578;2023-12-20T07:33:49;101775.41;;;6.19;100.00
69153;BME280;56261;51.580;4.578;2023-12-20T07:36:14;101772.50;;;6.11;100.00
69153;BME280;56261;51.580;4.578;2023-12-20T07:38:40;101768.91;;;6.12;100.00
69153;BME280;56261;51.580;4.578;2023-12-20T07:41:09;101768.91;;;6.12;100.00
69153;BME280;56261;51.580;4.578;2023-12-20T07:43:34;101771.41;;;6.13;100.00
69153;BME280;56261;51.580;4.578;2023-12-20T07:46:04;101767.94;;;6.13;100.00
69153;BME280;56261;51.580;4.578;2023-12-20T07:48:30;101769.88;;;6.22;100.00
69153;BME280;56261;51.580;4.578;2023-12-20T07:50:55;101763.63;;;6.23;100.00
69153;BME280;56261;51.580;4.578;2023-12-20T07:53:21;101779.88;;;6.30;100.00
69153;BME280;56261;51.580;4.578;2023-12-20T07:55:46;101773.97;;;6.37;100.00
69153;BME280;56261;51.580;4.578;2023-12-20T07:58:11;101784.84;;;6.34;100.00
69153;BME280;56261;51.580;4.578;2023-12-20T08:00:37;101779.28;;;6.37;100.00
69153;BME280;56261;51.580;4.578;2023-12-20T08:03:03;101787.72;;;6.42;100.00
69153;BME280;56261;51.580;4.578;2023-12-20T08:05:28;101781.09;;;6.37;100.00
69153;BME280;56261;51.580;4.578;2023-12-20T08:07:54;101780.63;;;6.43;100.00
69153;BME280;56261;51.580;4.578;2023-12-20T08:10:19;101785.41;;;6.38;100.00
69153;BME280;56261;51.580;4.578;2023-12-20T08:12:44;101776.03;;;6.45;100.00
69153;BME280;56261;51.580;4.578;2023-12-20T08:15:10;101784.47;;;6.50;100.00
69153;BME280;56261;51.580;4.578;2023-12-20T08:17:35;101785.69;;;6.46;100.00
69153;BME280;56261;51.580;4.578;2023-12-20T08:20:01;101788.94;;;6.61;100.00
69153;BME280;56261;51.580;4.578;2023-12-20T08:22:26;101789.63;;;6.52;100.00
69153;BME280;56261;51.580;4.578;2023-12-20T08:24:51;101800.38;;;6.61;100.00
69153;BME280;56261;51.580;4.578;2023-12-20T08:27:17;101792.06;;;6.66;100.00
69153;BME280;56261;51.580;4.578;2023-12-20T08:29:44;101793.75;;;6.67;100.00
69153;BME280;56261;51.580;4.578;2023-12-20T08:32:10;101782.91;;;6.70;100.00
69153;BME280;56261;51.580;4.578;2023-12-20T08:34:35;101772.06;;;6.73;100.00
69153;BME280;56261;51.580;4.578;2023-12-20T08:37:01;101769.03;;;6.78;100.00
69153;BME280;56261;51.580;4.578;2023-12-20T08:39:26;101771.78;;;6.88;100.00
69153;BME280;56261;51.580;4.578;2023-12-20T08:41:51;101773.41;;;6.79;100.00
69153;BME280;56261;51.580;4.578;2023-12-20T08:44:17;101771.56;;;6.79;100.00
69153;BME280;56261;51.580;4.578;2023-12-20T08:46:43;101776.63;;;6.82;100.00
69153;BME280;56261;51.580;4.578;2023-12-20T08:49:08;101795.66;;;6.88;100.00
69153;BME280;56261;51.580;4.578;2023-12-20T08:51:34;101786.88;;;6.87;100.00
69153;BME280;56261;51.580;4.578;2023-12-20T08:54:00;101794.97;;;6.85;100.00
69153;BME280;56261;51.580;4.578;2023-12-20T08:56:25;101796.72;;;6.96;100.00
69153;BME280;56261;51.580;4.578;2023-12-20T08:58:51;101804.31;;;7.01;100.00
69153;BME280;56261;51.580;4.578;2023-12-20T09:01:16;101794.22;;;7.06;100.00
69153;BME280;56261;51.580;4.578;2023-12-20T09:03:41;101788.28;;;7.02;100.00
69153;BME280;56261;51.580;4.578;2023-12-20T09:06:07;101799.38;;;7.07;100.00
69153;BME280;56261;51.580;4.578;2023-12-20T09:08:32;101800.97;;;6.99;100.00
69153;BME280;56261;51.580;4.578;2023-12-20T09:10:58;101787.00;;;6.97;100.00
69153;BME280;56261;51.580;4.578;2023-12-20T09:13:23;101801.69;;;6.90;100.00
69153;BME280;56261;51.580;4.578;2023-12-20T09:15:57;101794.09;;;6.96;100.00
69153;BME280;56261;51.580;4.578;2023-12-20T09:18:22;101796.63;;;6.98;100.00
69153;BME280;56261;51.580;4.578;2023-12-20T09:20:48;101801.31;;;6.94;100.00
69153;BME280;56261;51.580;4.578;2023-12-20T09:23:13;101795.66;;;6.99;100.00
69153;BME280;56261;51.580;4.578;2023-12-20T09:25:38;101779.03;;;6.97;100.00
69153;BME280;56261;51.580;4.578;2023-12-20T09:28:04;101783.59;;;7.06;100.00
69153;BME280;56261;51.580;4.578;2023-12-20T09:30:30;101791.19;;;7.11;100.00
69153;BME280;56261;51.580;4.578;2023-12-20T09:32:55;101795.50;;;7.12;100.00
69153;BME280;56261;51.580;4.578;2023-12-20T09:35:21;101791.91;;;7.13;100.00
69153;BME280;56261;51.580;4.578;2023-12-20T09:37:47;101792.47;;;7.16;100.00
69153;BME280;56261;51.580;4.578;2023-12-20T09:40:18;101790.91;;;7.25;100.00
69153;BME280;56261;51.580;4.578;2023-12-20T09:42:57;101788.72;;;7.19;100.00
69153;BME280;56261;51.580;4.578;2023-12-20T09:45:23;101791.03;;;7.23;100.00
69153;BME280;56261;51.580;4.578;2023-12-20T09:47:53;101797.03;;;7.25;100.00
69153;BME280;56261;51.580;4.578;2023-12-20T09:50:20;101793.91;;;7.20;100.00
69153;BME280;56261;51.580;4.578;2023-12-20T09:52:49;101776.34;;;7.19;100.00
69153;BME280;56261;51.580;4.578;2023-12-20T09:55:17;101795.09;;;7.27;100.00
69153;BME280;56261;51.580;4.578;2023-12-20T09:57:42;101798.75;;;7.26;100.00
69153;BME280;56261;51.580;4.578;2023-12-20T10:00:08;101792.22;;;7.31;100.00
69153;BME280;56261;51.580;4.578;2023-12-20T10:02:36;101794.63;;;7.34;100.00
69153;BME280;56261;51.580;4.578;2023-12-20T10:05:06;101795.72;;;7.31;100.00
69153;BME280;56261;51.580;4.578;2023-12-20T10:07:34;101790.41;;;7.31;100.00
69153;BME280;56261;51.580;4.578;2023-12-20T10:10:01;101790.28;;;7.33;100.00
69153;BME280;56261;51.580;4.578;2023-12-20T10:12:27;101801.38;;;7.38;100.00
69153;BME280;56261;51.580;4.578;2023-12-20T10:14:52;101799.06;;;7.44;100.00
69153;BME280;56261;51.580;4.578;2023-12-20T10:17:18;101788.19;;;7.47;100.00
69153;BME280;56261;51.580;4.578;2023-12-20T10:19:43;101780.59;;;7.43;100.00
69153;BME280;56261;51.580;4.578;2023-12-20T10:22:10;101780.81;;;7.51;100.00
69153;BME280;56261;51.580;4.578;2023-12-20T10:24:35;101789.88;;;7.48;100.00
69153;BME280;56261;51.580;4.578;2023-12-20T10:27:04;101780.31;;;7.57;100.00
69153;BME280;56261;51.580;4.578;2023-12-20T10:29:36;101780.53;;;7.54;100.00
69153;BME280;56261;51.580;4.578;2023-12-20T10:32:29;101785.75;;;7.56;100.00
69153;BME280;56261;51.580;4.578;2023-12-20T10:34:55;101773.19;;;7.58;100.00
69153;BME280;56261;51.580;4.578;2023-12-20T10:37:20;101770.41;;;7.59;100.00
69153;BME280;56261;51.580;4.578;2023-12-20T10:39:50;101759.84;;;7.48;100.00
69153;BME280;56261;51.580;4.578;2023-12-20T10:42:18;101750.00;;;7.60;100.00
69153;BME280;56261;51.580;4.578;2023-12-20T10:44:46;101761.84;;;7.56;100.00
69153;BME280;56261;51.580;4.578;2023-12-20T10:47:13;101736.63;;;7.50;100.00
69153;BME280;56261;51.580;4.578;2023-12-20T10:49:39;101753.72;;;7.68;100.00
69153;BME280;56261;51.580;4.578;2023-12-20T10:52:05;101747.41;;;7.69;100.00
69153;BME280;56261;51.580;4.578;2023-12-20T10:54:31;101746.59;;;7.69;100.00
69153;BME280;56261;51.580;4.578;2023-12-20T10:56:57;101743.53;;;7.74;100.00
69153;BME280;56261;51.580;4.578;2023-12-20T10:59:24;101738.50;;;7.71;100.00
69153;BME280;56261;51.580;4.578;2023-12-20T11:01:50;101741.59;;;7.76;100.00
69153;BME280;56261;51.580;4.578;2023-12-20T11:04:25;101743.75;;;7.82;100.00
69153;BME280;56261;51.580;4.578;2023-12-20T11:09:41;101738.59;;;7.90;100.00
69153;BME280;56261;51.580;4.578;2023-12-20T11:12:13;101735.03;;;8.01;100.00
69153;BME280;56261;51.580;4.578;2023-12-20T11:17:11;101715.25;;;8.15;100.00
69153;BME280;56261;51.580;4.578;2023-12-20T11:22:24;101721.19;;;8.28;100.00
69153;BME280;56261;51.580;4.578;2023-12-20T11:24:51;101715.88;;;8.28;100.00
69153;BME280;56261;51.580;4.578;2023-12-20T11:27:18;101709.75;;;8.37;100.00
69153;BME280;56261;51.580;4.578;2023-12-20T11:29:51;101717.53;;;8.40;100.00
69153;BME280;56261;51.580;4.578;2023-12-20T11:34:56;101724.41;;;8.52;100.00
69153;BME280;56261;51.580;4.578;2023-12-20T11:37:32;101721.91;;;8.51;100.00
69153;BME280;56261;51.580;4.578;2023-12-20T11:40:12;101712.81;;;8.54;100.00
69153;BME280;56261;51.580;4.578;2023-12-20T11:42:42;101713.00;;;8.62;100.00
69153;BME280;56261;51.580;4.578;2023-12-20T11:45:11;101714.47;;;8.55;100.00
69153;BME280;56261;51.580;4.578;2023-12-20T11:47:40;101718.00;;;8.55;100.00
69153;BME280;56261;51.580;4.578;2023-12-20T11:50:07;101705.97;;;8.61;100.00
69153;BME280;56261;51.580;4.578;2023-12-20T11:52:32;101705.00;;;8.62;100.00
69153;BME280;56261;51.580;4.578;2023-12-20T11:54:58;101702.19;;;8.63;100.00
69153;BME280;56261;51.580;4.578;2023-12-20T11:57:23;101702.63;;;8.68;100.00
69153;BME280;56261;51.580;4.578;2023-12-20T11:59:49;101696.22;;;8.71;100.00
69153;BME280;56261;51.580;4.578;2023-12-20T12:02:14;101687.81;;;8.76;100.00
69153;BME280;56261;51.580;4.578;2023-12-20T12:04:43;101692.56;;;8.72;100.00
69153;BME280;56261;51.580;4.578;2023-12-20T12:07:08;101681.09;;;8.71;100.00
69153;BME280;56261;51.580;4.578;2023-12-20T12:09:34;101676.31;;;8.75;100.00
69153;BME280;56261;51.580;4.578;2023-12-20T12:12:00;101690.31;;;8.77;100.00
69153;BME280;56261;51.580;4.578;2023-12-20T12:14:26;101683.91;;;8.80;100.00
69153;BME280;56261;51.580;4.578;2023-12-20T12:16:52;101672.56;;;8.78;100.00
69153;BME280;56261;51.580;4.578;2023-12-20T12:19:22;101683.75;;;8.81;100.00
69153;BME280;56261;51.580;4.578;2023-12-20T12:21:49;101668.50;;;8.83;100.00
69153;BME280;56261;51.580;4.578;2023-12-20T12:24:14;101684.34;;;8.85;100.00
69153;BME280;56261;51.580;4.578;2023-12-20T12:26:40;101672.44;;;8.89;100.00
69153;BME280;56261;51.580;4.578;2023-12-20T12:29:08;101668.25;;;8.86;100.00
69153;BME280;56261;51.580;4.578;2023-12-20T12:31:34;101651.72;;;8.83;100.00
69153;BME280;56261;51.580;4.578;2023-12-20T12:34:01;101668.78;;;8.90;100.00
69153;BME280;56261;51.580;4.578;2023-12-20T12:36:28;101655.22;;;8.83;100.00
69153;BME280;56261;51.580;4.578;2023-12-20T12:38:53;101667.53;;;8.84;100.00
69153;BME280;56261;51.580;4.578;2023-12-20T12:41:21;101664.88;;;8.84;100.00
69153;BME280;56261;51.580;4.578;2023-12-20T12:43:46;101670.03;;;8.76;100.00
69153;BME280;56261;51.580;4.578;2023-12-20T12:46:12;101659.13;;;8.79;100.00
69153;BME280;56261;51.580;4.578;2023-12-20T12:48:37;101644.56;;;8.83;100.00
69153;BME280;56261;51.580;4.578;2023-12-20T12:51:04;101650.44;;;8.77;100.00
69153;BME280;56261;51.580;4.578;2023-12-20T12:53:29;101651.88;;;8.91;100.00
69153;BME280;56261;51.580;4.578;2023-12-20T12:55:54;101637.59;;;8.82;100.00